Vliegveldwaarnemingen Nederland - (AUTO) METAR

Luchtvaartmeteorologische informatie voor operationeel gebruik en vluchtvoorbereiding is beschikbaar op www.luchtvaartmeteo.nl.

ZCZC
SA120625 EHFS     VLISSINGEN AWS   NLD   8 m.
METAR EHFS 120625Z AUTO 23007KT 9999 NCD 11/09 Q1011=

ZCZC
SA120625 EHSG     BSA   NLD   43 m.
METAR EHSG 120625Z AUTO 21012KT 190V250 //// // ///////// 10/08 Q1011
RE//=

ZCZC
SA120655 EHKD     DE KOOY/DE KOOY   NLD   1 m.
METAR EHKD 120655Z AUTO 24014KT 9999 NCD 11/09 Q1010
BLU NOSIG=

ZCZC
SA120655 EHFD     F3-FB-1   NLD   50 m.
METAR EHFD 120655Z AUTO 19004G27KT 0250 FG VV000 10/09 Q1009=

ZCZC
SA120655 EHAM     AMSTERDAM/SCHIPHOL   NLD   -3 m.
METAR EHAM 120655Z 25011KT 220V280 9999 FEW018 12/08 Q1011 NOSIG=

ZCZC
SA120655 EHVL     VLIELAND   NLD   10 m.
METAR EHVL 120655Z AUTO 25015KT 9999 NCD 11/09 Q1010 BLU=

ZCZC
SA120655 EHJR     K13-A   NLD   37 m.
METAR EHJR 120655Z AUTO ///19KT //// // ///////// 10/08 Q1010 RE//
W09/H7=

ZCZC
SA120655 EHLE     LELYSTAD/LELYSTAD   NLD   -3 m.
METAR EHLE 120655Z AUTO 25008KT 9999 NCD 12/09 Q1010 NOSIG=

ZCZC
SA120655 EHLW     LEEUWARDEN/LEEUWARDEN   NLD   1 m.
METAR EHLW 120655Z AUTO 26009KT 230V290 9999 NCD 13/10 Q1010
BLU BECMG SCT015=

ZCZC
SA120655 EHDL     ARNHEM/DEELEN   NLD   48 m.
METAR EHDL 120655Z AUTO 28008KT 230V010 9999 NCD 12/08 Q1011 BLU=

ZCZC
SA120655 EHGG     GRONINGEN/EELDE   NLD   5 m.
METAR EHGG 120655Z AUTO 27008KT 230V300 9999 NSC 13/09 Q1010 NOSIG=

ZCZC
SA120655 EHSC     LICHTEILAND GOEREE   NLD   22 m.
METAR EHSC 120655Z AUTO 23013KT 9999 ///////// 11/08 Q1011 W10/H5=

ZCZC
SA120655 EHSA     EURO PLATFORM   NLD   19 m.
METAR EHSA 120655Z AUTO 20015KT 9999 ///////// 10/08 Q1011 W10/H6=

ZCZC
SA120655 EHWO     WOENSDRECHT/WOENSDRECHT   NLD   19 m.
METAR EHWO 120655Z AUTO 24006KT 210V280 9999 FEW013 12/08 Q1011
BLU NOSIG=

ZCZC
SA120655 EHRD     ROTTERDAM/THE HAGUE AIRPORT   NLD   -5 m.
METAR EHRD 120655Z AUTO 24010KT 200V290 9999 FEW018 12/08 Q1011
NOSIG=

ZCZC
SA120655 EHGR     GILZE-RIJEN/GILZE-RIJEN   NLD   14 m.
METAR EHGR 120655Z AUTO 26006KT 220V300 9999 FEW015 13/09 Q1011
BLU TEMPO SCT012=

ZCZC
SA120655 EHEH     EINDHOVEN/EINDHOVEN   NLD   22 m.
METAR COR EHEH 120655Z AUTO 27008KT 230V300 9999 NCD 13/09 Q1011
BLU TEMPO SCT018=

ZCZC
SA120655 EHVK     VOLKEL/VOLKEL   NLD   21 m.
METAR EHVK 120655Z AUTO 27007KT 250V320 9999 NCD 12/09 Q1011
BLU NOSIG=

ZCZC
SA120655 EHBK     MAASTRICHT/MAASTRICHT-AACHEN   NLD   114 m.
METAR EHBK 120655Z AUTO 23009KT 200V260 9999 NSC 12/09 Q1012 NOSIG=

ZCZC
SA120655 EHFZ     F16-A   NLD   43 m.
METAR EHFZ 120655Z NIL=

ZCZC
SA120655 EHKV     K14-FA-1C   NLD   41 m.
METAR EHKV 120655Z AUTO 22021KT 9999 NCD 10/08 Q1009=

ZCZC
SA120655 EHMG     L9-FF-1   NLD   44 m.
METAR EHMG 120655Z AUTO 24016KT 9999 NSC 10/08 Q1011=

ZCZC
SA120655 EHMA     AWG-1   NLD   40 m.
METAR EHMA 120655Z AUTO 27012KT 9999 NSC 11/08 Q1010=

ZCZC
SA120655 EHDV     D15-FA-1   NLD   42 m.
METAR EHDV 120655Z AUTO 22013KT 180V260 9999 NSC 09/08 Q1008=

ZCZC
SA120655 EHAK     A12-CPP   NLD   48 m.
METAR EHAK 120655Z AUTO 11006KT 040V180 6000 OVC001/// 09/09 Q1008=

ZCZC
SA120655 EHQE     HOORN-A   NLD   50 m.
METAR EHQE 120655Z AUTO 20015KT 9999 NCD 10/08 Q1010=

ZCZC
SA120655 EHJA     J6-A   NLD   45 m.
METAR EHJA 120655Z AUTO 21014KT 9999 NCD 09/08 Q1008=

ZCZC
SA120655 EHPG     P11-B   NLD   41 m.
METAR EHPG 120655Z AUTO 22020KT 9999 NCD 10/08 Q1010=

ZCZC
SA120655 EHHW     BUITENGAATS/BG-OHVS2      42 m.
METAR EHHW 120655Z AUTO 24007KT 200V290 6000 FEW000/// SCT002///
BKN004/// 10/09 Q1009=

12/05/2021 09.00 uur LT